TCA7640 SVMI-SVBM
Flight info
| Callsign | TCA7640 |
|---|---|
| Flight time | 0h 30m |
| Altitude | 22000 |
| Route | MARES1 MARES DCT PBL W9 UGOSI DCT GUARO DCT BRM |
| Aircraft | A20N/M-SDE2E3FGHIRWXY/LB1 |
Departure
| Time | 2026-04-22 00:26 |
|---|---|
| Airport | Maiquetía Simón Bolívar International Airport (SVMI) |
Arrival
| Time | 2026-04-22 00:57 |
|---|---|
| Airport | Jacinto Lara International Airport (SVBM) |
| Time | Latitude | Longitude | Altitude | Speed | Heading |
|---|---|---|---|---|---|
| 2026-04-22 00:14 | 10.59834 | -66.99928 | 219 ft | 0 kts | 177° |
| 2026-04-22 00:17 | 10.59837 | -66.99928 | 219 ft | 1 kts | 177° |
| 2026-04-22 00:18 | 10.59854 | -66.99929 | 220 ft | 3 kts | 173° |
| 2026-04-22 00:18 | 10.59874 | -66.99932 | 220 ft | 3 kts | 166° |
| 2026-04-22 00:18 | 10.59894 | -66.99938 | 220 ft | 3 kts | 152° |
| 2026-04-22 00:18 | 10.59909 | -66.99949 | 220 ft | 3 kts | 118° |
| 2026-04-22 00:19 | 10.59913 | -66.99959 | 220 ft | 0 kts | 88° |
| 2026-04-22 00:24 | 10.59931 | -66.99920 | 219 ft | 11 kts | 43° |
| 2026-04-22 00:24 | 10.60035 | -66.99913 | 218 ft | 19 kts | 357° |
| 2026-04-22 00:24 | 10.60131 | -66.99850 | 215 ft | 18 kts | 88° |
| 2026-04-22 00:24 | 10.60136 | -66.99711 | 215 ft | 20 kts | 94° |
| 2026-04-22 00:25 | 10.60096 | -66.99659 | 211 ft | 10 kts | 185° |
| 2026-04-22 00:25 | 10.59955 | -66.99660 | 218 ft | 22 kts | 159° |
| 2026-04-22 00:25 | 10.59943 | -66.99457 | 206 ft | 64 kts | 74° |
| 2026-04-22 00:25 | 10.60144 | -66.98650 | 179 ft | 163 kts | 75° |
| 2026-04-22 00:26 | 10.60436 | -66.97405 | 789 ft | 187 kts | 77° |
| 2026-04-22 00:26 | 10.60711 | -66.96073 | 1676 ft | 194 kts | 77° |
| 2026-04-22 00:26 | 10.61028 | -66.94768 | 2405 ft | 188 kts | 75° |
| 2026-04-22 00:26 | 10.61400 | -66.93456 | 3034 ft | 203 kts | 65° |
| 2026-04-22 00:27 | 10.62346 | -66.92340 | 3652 ft | 223 kts | 31° |
| 2026-04-22 00:27 | 10.63929 | -66.91869 | 4319 ft | 256 kts | 2° |
| 2026-04-22 00:27 | 10.65725 | -66.92272 | 4963 ft | 282 kts | 334° |
| 2026-04-22 00:27 | 10.67335 | -66.93584 | 5621 ft | 314 kts | 309° |
| 2026-04-22 00:28 | 10.68383 | -66.95626 | 6260 ft | 341 kts | 286° |
| 2026-04-22 00:28 | 10.68817 | -66.98069 | 6898 ft | 360 kts | 278° |
| 2026-04-22 00:28 | 10.68929 | -67.00647 | 7527 ft | 374 kts | 264° |
| 2026-04-22 00:28 | 10.68581 | -67.03322 | 8161 ft | 389 kts | 261° |
| 2026-04-22 00:29 | 10.68141 | -67.06072 | 8791 ft | 398 kts | 260° |
| 2026-04-22 00:29 | 10.67643 | -67.08851 | 9416 ft | 402 kts | 259° |
| 2026-04-22 00:29 | 10.67114 | -67.11647 | 10052 ft | 404 kts | 259° |
| 2026-04-22 00:29 | 10.66569 | -67.14460 | 10669 ft | 409 kts | 258° |
| 2026-04-22 00:30 | 10.66019 | -67.17298 | 11309 ft | 409 kts | 259° |
| 2026-04-22 00:30 | 10.65471 | -67.20144 | 11936 ft | 412 kts | 259° |
| 2026-04-22 00:30 | 10.64921 | -67.23006 | 12563 ft | 413 kts | 259° |
| 2026-04-22 00:30 | 10.64365 | -67.25892 | 13190 ft | 419 kts | 259° |
| 2026-04-22 00:31 | 10.63802 | -67.28811 | 13817 ft | 423 kts | 259° |
| 2026-04-22 00:31 | 10.63240 | -67.31720 | 14435 ft | 427 kts | 259° |
| 2026-04-22 00:31 | 10.62664 | -67.34699 | 15062 ft | 433 kts | 259° |
| 2026-04-22 00:31 | 10.62080 | -67.37716 | 15695 ft | 437 kts | 259° |
| 2026-04-22 00:32 | 10.61490 | -67.40764 | 16315 ft | 442 kts | 259° |
| 2026-04-22 00:32 | 10.60895 | -67.43837 | 16941 ft | 446 kts | 259° |
| 2026-04-22 00:32 | 10.60291 | -67.46946 | 17568 ft | 450 kts | 259° |
| 2026-04-22 00:32 | 10.59685 | -67.50073 | 18202 ft | 452 kts | 259° |
| 2026-04-22 00:33 | 10.59074 | -67.53219 | 18827 ft | 455 kts | 259° |
| 2026-04-22 00:33 | 10.58458 | -67.56386 | 19446 ft | 458 kts | 259° |
| 2026-04-22 00:33 | 10.57840 | -67.59562 | 20072 ft | 460 kts | 259° |
| 2026-04-22 00:33 | 10.57217 | -67.62757 | 20698 ft | 461 kts | 259° |
| 2026-04-22 00:34 | 10.56593 | -67.65955 | 21321 ft | 462 kts | 259° |
| 2026-04-22 00:34 | 10.55966 | -67.69175 | 21793 ft | 468 kts | 259° |
| 2026-04-22 00:34 | 10.55327 | -67.72455 | 21952 ft | 479 kts | 259° |
| 2026-04-22 00:34 | 10.54675 | -67.75806 | 21981 ft | 485 kts | 259° |
| 2026-04-22 00:35 | 10.54018 | -67.79172 | 21986 ft | 486 kts | 259° |
| 2026-04-22 00:35 | 10.53360 | -67.82534 | 21976 ft | 486 kts | 259° |
| 2026-04-22 00:35 | 10.52702 | -67.85902 | 21979 ft | 485 kts | 259° |
| 2026-04-22 00:35 | 10.52044 | -67.89261 | 21983 ft | 486 kts | 259° |
| 2026-04-22 00:36 | 10.51385 | -67.92627 | 21982 ft | 485 kts | 259° |
| 2026-04-22 00:36 | 10.50726 | -67.95990 | 21977 ft | 486 kts | 259° |
| 2026-04-22 00:36 | 10.50067 | -67.99358 | 21979 ft | 486 kts | 259° |
| 2026-04-22 00:36 | 10.49408 | -68.02718 | 21984 ft | 486 kts | 259° |
| 2026-04-22 00:37 | 10.48747 | -68.06086 | 21989 ft | 486 kts | 259° |
| 2026-04-22 00:37 | 10.48097 | -68.09453 | 21887 ft | 485 kts | 260° |
| 2026-04-22 00:37 | 10.47543 | -68.12824 | 21564 ft | 483 kts | 262° |
| 2026-04-22 00:37 | 10.47038 | -68.16190 | 21190 ft | 480 kts | 262° |
| 2026-04-22 00:38 | 10.46542 | -68.19527 | 20816 ft | 477 kts | 262° |
| 2026-04-22 00:38 | 10.46038 | -68.22851 | 20436 ft | 474 kts | 262° |
| 2026-04-22 00:38 | 10.45529 | -68.26151 | 20067 ft | 472 kts | 261° |
| 2026-04-22 00:38 | 10.45016 | -68.29432 | 19694 ft | 469 kts | 261° |
| 2026-04-22 00:39 | 10.44502 | -68.32694 | 19319 ft | 466 kts | 261° |
| 2026-04-22 00:39 | 10.43991 | -68.35934 | 18944 ft | 463 kts | 261° |
| 2026-04-22 00:39 | 10.43655 | -68.38067 | 18696 ft | 461 kts | 261° |
| 2026-04-22 00:39 | 10.43147 | -68.41274 | 18323 ft | 459 kts | 261° |
| 2026-04-22 00:40 | 10.42643 | -68.44467 | 17947 ft | 456 kts | 261° |
| 2026-04-22 00:40 | 10.42145 | -68.47635 | 17572 ft | 453 kts | 261° |
| 2026-04-22 00:40 | 10.41647 | -68.50791 | 17198 ft | 451 kts | 261° |
| 2026-04-22 00:40 | 10.40991 | -68.54928 | 16700 ft | 446 kts | 261° |
| 2026-04-22 00:41 | 10.40659 | -68.57025 | 16444 ft | 444 kts | 261° |
| 2026-04-22 00:41 | 10.40173 | -68.60085 | 15959 ft | 430 kts | 261° |
| 2026-04-22 00:41 | 10.39706 | -68.63024 | 15463 ft | 413 kts | 261° |
| 2026-04-22 00:41 | 10.39257 | -68.65852 | 14964 ft | 398 kts | 261° |
| 2026-04-22 00:42 | 10.38824 | -68.68574 | 14466 ft | 384 kts | 261° |
| 2026-04-22 00:42 | 10.38411 | -68.71211 | 13967 ft | 373 kts | 262° |
| 2026-04-22 00:42 | 10.38034 | -68.73778 | 13470 ft | 363 kts | 262° |
| 2026-04-22 00:42 | 10.37681 | -68.76248 | 12978 ft | 354 kts | 262° |
| 2026-04-22 00:43 | 10.37331 | -68.78690 | 12480 ft | 346 kts | 262° |
| 2026-04-22 00:43 | 10.36986 | -68.81086 | 11975 ft | 339 kts | 262° |
| 2026-04-22 00:43 | 10.36646 | -68.83431 | 11481 ft | 333 kts | 262° |
| 2026-04-22 00:43 | 10.36310 | -68.85740 | 10980 ft | 328 kts | 262° |
| 2026-04-22 00:44 | 10.35978 | -68.88012 | 10483 ft | 323 kts | 262° |
| 2026-04-22 00:44 | 10.35650 | -68.90252 | 9981 ft | 319 kts | 262° |
| 2026-04-22 00:44 | 10.35326 | -68.92470 | 9479 ft | 315 kts | 262° |
| 2026-04-22 00:44 | 10.35009 | -68.94656 | 8979 ft | 311 kts | 262° |
| 2026-04-22 00:45 | 10.34899 | -68.95410 | 8805 ft | 310 kts | 262° |
| 2026-04-22 00:45 | 10.34597 | -68.97474 | 8331 ft | 307 kts | 262° |
| 2026-04-22 00:45 | 10.34285 | -68.99589 | 8059 ft | 296 kts | 262° |
| 2026-04-22 00:45 | 10.33990 | -69.01604 | 7982 ft | 280 kts | 262° |
| 2026-04-22 00:46 | 10.33710 | -69.03503 | 7968 ft | 263 kts | 262° |
| 2026-04-22 00:46 | 10.33448 | -69.05281 | 7967 ft | 247 kts | 262° |
| 2026-04-22 00:46 | 10.33203 | -69.06955 | 7963 ft | 232 kts | 262° |
| 2026-04-22 00:46 | 10.32966 | -69.08568 | 7967 ft | 234 kts | 262° |
| 2026-04-22 00:47 | 10.32726 | -69.10166 | 7979 ft | 219 kts | 261° |
| 2026-04-22 00:47 | 10.32492 | -69.11695 | 7967 ft | 222 kts | 262° |
| 2026-04-22 00:47 | 10.32063 | -69.13185 | 7961 ft | 221 kts | 242° |
| 2026-04-22 00:47 | 10.31048 | -69.14346 | 7805 ft | 219 kts | 221° |
| 2026-04-22 00:48 | 10.29904 | -69.15311 | 7392 ft | 212 kts | 218° |
| 2026-04-22 00:48 | 10.28755 | -69.16221 | 6719 ft | 214 kts | 217° |
| 2026-04-22 00:48 | 10.27546 | -69.17156 | 5965 ft | 218 kts | 217° |
| 2026-04-22 00:48 | 10.26341 | -69.18083 | 5244 ft | 222 kts | 217° |
| 2026-04-22 00:49 | 10.25108 | -69.19033 | 4559 ft | 222 kts | 217° |
| 2026-04-22 00:49 | 10.23911 | -69.19959 | 4115 ft | 209 kts | 217° |
| 2026-04-22 00:49 | 10.22812 | -69.20809 | 3978 ft | 188 kts | 217° |
| 2026-04-22 00:49 | 10.21815 | -69.21582 | 3974 ft | 182 kts | 217° |
| 2026-04-22 00:50 | 10.20816 | -69.22355 | 3969 ft | 179 kts | 217° |
| 2026-04-22 00:50 | 10.19825 | -69.23124 | 3903 ft | 176 kts | 217° |
| 2026-04-22 00:50 | 10.18861 | -69.23872 | 3800 ft | 175 kts | 217° |
| 2026-04-22 00:50 | 10.17859 | -69.24652 | 3710 ft | 184 kts | 217° |
| 2026-04-22 00:51 | 10.16863 | -69.25428 | 3626 ft | 178 kts | 217° |
| 2026-04-22 00:51 | 10.15870 | -69.26196 | 3533 ft | 182 kts | 217° |
| 2026-04-22 00:51 | 10.14862 | -69.26972 | 3434 ft | 182 kts | 217° |
| 2026-04-22 00:51 | 10.13860 | -69.27745 | 3344 ft | 182 kts | 217° |
| 2026-04-22 00:52 | 10.12875 | -69.28511 | 3237 ft | 171 kts | 217° |
| 2026-04-22 00:52 | 10.11941 | -69.29239 | 3136 ft | 170 kts | 217° |
| 2026-04-22 00:52 | 10.11001 | -69.29969 | 3037 ft | 171 kts | 217° |
| 2026-04-22 00:52 | 10.10057 | -69.30701 | 2971 ft | 170 kts | 218° |
| 2026-04-22 00:53 | 10.09298 | -69.31709 | 3031 ft | 193 kts | 246° |
| 2026-04-22 00:53 | 10.09109 | -69.33008 | 3111 ft | 185 kts | 275° |
| 2026-04-22 00:53 | 10.09285 | -69.34258 | 3204 ft | 165 kts | 280° |
| 2026-04-22 00:53 | 10.09453 | -69.35378 | 3297 ft | 162 kts | 273° |
| 2026-04-22 00:54 | 10.09325 | -69.36430 | 3384 ft | 135 kts | 252° |
| 2026-04-22 00:54 | 10.08992 | -69.37300 | 3294 ft | 133 kts | 249° |
| 2026-04-22 00:54 | 10.08587 | -69.38312 | 3324 ft | 170 kts | 248° |
| 2026-04-22 00:54 | 10.08143 | -69.39429 | 3360 ft | 172 kts | 249° |
| 2026-04-22 00:55 | 10.07409 | -69.40317 | 3439 ft | 166 kts | 205° |
| 2026-04-22 00:55 | 10.06339 | -69.40238 | 3145 ft | 150 kts | 161° |
| 2026-04-22 00:55 | 10.04416 | -69.39487 | 2684 ft | 155 kts | 140° |
| 2026-04-22 00:56 | 10.03997 | -69.38564 | 2376 ft | 144 kts | 97° |
| 2026-04-22 00:56 | 10.04017 | -69.37526 | 2115 ft | 148 kts | 84° |
| 2026-04-22 00:56 | 10.04158 | -69.36555 | 2035 ft | 126 kts | 82° |
| 2026-04-22 00:56 | 10.04242 | -69.35944 | 2041 ft | 65 kts | 82° |
| 2026-04-22 00:57 | 10.04308 | -69.35523 | 2035 ft | 48 kts | 81° |
| 2026-04-22 00:57 | 10.04394 | -69.35425 | 2038 ft | 7 kts | 331° |
| 2026-04-22 00:57 | 10.04461 | -69.35444 | 2037 ft | 12 kts | 5° |
| 2026-04-22 00:57 | 10.04491 | -69.35463 | 2034 ft | 3 kts | 267° |
| 2026-04-22 00:58 | 10.04477 | -69.35583 | 2042 ft | 25 kts | 263° |
| 2026-04-22 00:58 | 10.04449 | -69.35782 | 2039 ft | 32 kts | 262° |
| 2026-04-22 00:58 | 10.04428 | -69.35974 | 2034 ft | 23 kts | 292° |
| 2026-04-22 00:58 | 10.04458 | -69.35995 | 2034 ft | 6 kts | 357° |
| 2026-04-22 00:59 | 10.04524 | -69.36007 | 2040 ft | 10 kts | 353° |
| 2026-04-22 00:59 | 10.04528 | -69.36008 | 2034 ft | 0 kts | 351° |